createdAt,value
2022-09-27T00:00:04.000Z,99.84
2022-09-27T00:01:04.039Z,99.84
2022-09-27T00:02:04.112Z,99.84
2022-09-27T00:03:04.939Z,99.73
2022-09-27T00:04:03.998Z,99.73
2022-09-27T00:05:03.986Z,99.63
2022-09-27T00:06:03.960Z,99.63
2022-09-27T00:07:03.999Z,99.68
2022-09-27T00:08:03.906Z,99.78
2022-09-27T00:09:04.370Z,99.88
2022-09-27T00:10:07.470Z,99.98
2022-09-27T00:11:03.908Z,99.98
2022-09-27T00:12:02.846Z,99.98
2022-09-27T00:13:03.874Z,99.98
2022-09-27T00:14:04.615Z,99.99
2022-09-27T00:15:04.408Z,99.99
2022-09-27T00:16:04.018Z,99.99
2022-09-27T00:17:05.000Z,99.99
2022-09-27T00:18:03.800Z,99.99
2022-09-27T00:19:04.324Z,99.99
2022-09-27T00:20:04.428Z,99.99
2022-09-27T00:21:03.801Z,99.99
2022-09-27T00:22:06.999Z,99.99
2022-09-27T00:23:03.785Z,99.78
2022-09-27T00:25:08.980Z,99.78
2022-09-27T00:25:16.942Z,99.78
2022-09-27T00:26:15.462Z,99.88
2022-09-27T00:27:16.368Z,99.98
2022-09-27T00:28:15.523Z,99.98
2022-09-27T00:29:15.511Z,99.88
2022-09-27T00:30:16.325Z,99.99
2022-09-27T00:31:16.535Z,99.98
2022-09-27T00:32:16.306Z,99.98
2022-09-27T00:33:16.373Z,99.98
2022-09-27T00:34:16.511Z,99.99
2022-09-27T00:35:15.367Z,99.99
2022-09-27T00:36:15.464Z,99.99
2022-09-27T00:37:16.095Z,99.99
2022-09-27T00:38:16.304Z,99.99
2022-09-27T00:39:16.449Z,99.99
2022-09-27T00:40:19.457Z,99.98
2022-09-27T00:41:15.300Z,99.98
2022-09-27T00:42:17.158Z,99.98
2022-09-27T00:43:17.276Z,99.78
2022-09-27T00:44:15.214Z,99.58
2022-09-27T00:45:15.897Z,99.48
2022-09-27T00:46:15.361Z,99.48
2022-09-27T00:47:15.950Z,99.48
2022-09-27T00:48:15.249Z,99.48
2022-09-27T00:49:17.300Z,99.48
2022-09-27T00:50:15.328Z,99.58
2022-09-27T00:51:16.012Z,99.58
2022-09-27T00:52:15.876Z,99.58
2022-09-27T00:53:16.157Z,99.68
2022-09-27T00:54:15.141Z,99.83
2022-09-27T00:55:15.123Z,99.99
2022-09-27T00:56:15.117Z,99.99
2022-09-27T00:57:15.110Z,99.99
2022-09-27T00:58:15.130Z,99.99
2022-09-27T00:59:15.211Z,99.99
2022-09-27T01:00:15.083Z,99.99
2022-09-27T01:01:15.185Z,99.99
2022-09-27T01:02:15.266Z,99.68
2022-09-27T01:03:15.033Z,99.62
2022-09-27T01:04:15.046Z,99.58
2022-09-27T01:05:15.032Z,99.58
2022-09-27T01:11:06.371Z,98.97
2022-09-27T01:12:09.068Z,98.97
2022-09-27T01:13:07.301Z,98.87
2022-09-27T01:14:08.213Z,98.87
2022-09-27T01:15:07.266Z,98.77
2022-09-27T01:16:08.821Z,98.77
2022-09-27T01:17:07.273Z,98.67
2022-09-27T01:18:07.280Z,98.67
2022-09-27T01:19:28.202Z,98.71
2022-09-27T01:20:09.693Z,98.51
2022-09-27T01:21:07.183Z,98.41
2022-09-27T01:22:07.210Z,98.21
2022-09-27T01:23:35.277Z,98.31
2022-09-27T01:24:09.759Z,98.11
2022-09-27T01:25:08.063Z,98.21
2022-09-27T01:26:30.302Z,98.31
2022-09-27T01:27:07.138Z,98.31
2022-09-27T01:59:18.067Z,96.95
2022-09-27T01:59:56.567Z,96.95
2022-09-27T02:08:18.099Z,96.65
2022-09-27T02:09:19.782Z,96.65
2022-09-27T02:10:39.861Z,96.55
2022-09-27T02:11:18.748Z,96.25
2022-09-27T02:12:39.827Z,96.14
2022-09-27T02:13:18.826Z,96.04
2022-09-27T02:14:18.753Z,96.14
2022-09-27T02:15:19.576Z,96.25
2022-09-27T02:16:21.144Z,96.25
2022-09-27T02:17:18.710Z,96.25
2022-09-27T02:18:18.695Z,96.34
2022-09-27T02:19:21.641Z,96.55
2022-09-27T02:20:18.659Z,96.34
2022-09-27T02:21:18.639Z,96.25
2022-09-27T02:22:21.587Z,96.34
2022-09-27T02:23:19.621Z,96.45
2022-09-27T02:33:35.544Z,96.85
2022-09-27T02:34:31.106Z,96.85
2022-09-27T02:35:32.143Z,96.85
2022-09-27T02:36:31.531Z,96.75
2022-09-27T02:37:31.516Z,96.75
2022-09-27T02:38:31.497Z,96.85
2022-09-27T02:39:54.992Z,96.85
2022-09-27T02:40:30.602Z,96.95
2022-09-27T02:41:31.905Z,97.05
2022-09-27T02:42:51.554Z,96.75
2022-09-27T02:43:30.484Z,96.85
2022-09-27T02:44:32.577Z,96.65
2022-09-27T02:45:30.492Z,96.75
2022-09-27T02:46:30.553Z,96.45
2022-09-27T02:47:51.500Z,96.55
2022-09-27T02:48:30.477Z,96.45
2022-09-27T02:49:31.350Z,96.75
2022-09-27T02:50:29.431Z,96.75
2022-09-27T02:51:31.921Z,96.85
2022-09-27T02:54:34.465Z,96.80
2022-09-27T02:55:35.388Z,96.55
2022-09-27T02:56:35.454Z,96.75
2022-09-27T02:57:44.757Z,96.49
2022-09-27T02:58:35.438Z,96.45
2022-09-27T02:59:35.423Z,96.14
2022-09-27T03:00:35.320Z,96.25
2022-09-27T03:01:36.895Z,96.25
2022-09-27T03:02:37.759Z,96.34
2022-09-27T03:03:35.269Z,96.34
2022-09-27T03:04:36.738Z,96.25
2022-09-27T03:05:35.295Z,96.14
2022-09-27T03:06:37.234Z,96.34
2022-09-27T03:07:35.311Z,96.25
2022-09-27T03:08:35.289Z,96.34
2022-09-27T03:09:35.301Z,96.19
2022-09-27T03:10:35.266Z,96.34
2022-09-27T03:11:35.237Z,96.45
2022-09-27T03:12:36.050Z,96.25
2022-09-27T03:13:55.543Z,96.14
2022-09-27T03:14:36.764Z,96.25
2022-09-27T03:15:35.210Z,96.25
2022-09-27T03:16:35.207Z,96.34
2022-09-27T03:17:35.130Z,96.25
2022-09-27T03:18:35.172Z,96.39
2022-09-27T03:19:36.051Z,96.49
2022-09-27T03:20:45.883Z,96.49
2022-09-27T03:21:35.157Z,96.55
2022-09-27T03:22:35.098Z,96.59
2022-09-27T03:23:35.083Z,96.59
2022-09-27T03:24:35.134Z,96.49
2022-09-27T03:25:36.041Z,96.49
2022-09-27T03:26:36.935Z,96.39
2022-09-27T03:27:35.114Z,96.09
2022-09-27T03:28:35.954Z,96.14
2022-09-27T03:29:35.664Z,96.14
2022-09-27T03:30:35.022Z,96.14
2022-09-27T03:31:35.025Z,96.04
2022-09-27T03:32:35.800Z,95.94
2022-09-27T03:33:35.049Z,95.98
2022-09-27T03:34:35.727Z,95.94
2022-09-27T03:35:36.099Z,95.84
2022-09-27T03:36:35.730Z,95.74
2022-09-27T03:37:35.942Z,95.74
2022-09-27T03:38:35.870Z,95.54
2022-09-27T03:39:35.854Z,95.64
2022-09-27T03:40:36.834Z,95.64
2022-09-27T03:41:35.567Z,95.14
2022-09-27T03:42:34.867Z,95.23
2022-09-27T03:43:34.910Z,95.14
2022-09-27T03:44:35.717Z,95.23
2022-09-27T03:45:34.847Z,95.34
2022-09-27T03:46:35.805Z,95.43
2022-09-27T03:47:34.871Z,95.23
2022-09-27T03:48:34.798Z,94.73
2022-09-27T03:49:34.827Z,94.83
2022-09-27T03:50:34.792Z,94.93
2022-09-27T03:51:34.753Z,95.03
2022-09-27T03:52:35.776Z,94.93
2022-09-27T03:53:35.802Z,95.03
2022-09-27T03:54:49.550Z,95.03
2022-09-27T03:55:34.732Z,94.93
2022-09-27T03:56:34.759Z,95.14
2022-09-27T03:57:35.692Z,94.93
2022-09-27T03:58:34.676Z,95.03
2022-09-27T03:59:35.512Z,94.93
2022-09-27T04:00:36.555Z,95.14
2022-09-27T04:01:34.753Z,95.23
2022-09-27T04:02:35.637Z,95.34
2022-09-27T04:03:34.697Z,95.34
2022-09-27T04:04:35.348Z,95.54
2022-09-27T04:05:34.626Z,95.64
2022-09-27T04:06:36.313Z,95.43
2022-09-27T04:07:35.778Z,95.03
2022-09-27T04:08:34.692Z,95.23
2022-09-27T04:09:34.619Z,95.23
2022-09-27T04:10:34.575Z,95.34
2022-09-27T04:11:34.561Z,95.23
2022-09-27T04:12:34.538Z,95.34
2022-09-27T04:13:34.504Z,95.34
2022-09-27T04:14:35.475Z,95.43
2022-09-27T04:15:34.513Z,95.54
2022-09-27T04:16:35.529Z,95.54
2022-09-27T04:17:35.112Z,95.43
2022-09-27T04:18:35.298Z,95.43
2022-09-27T04:19:35.710Z,95.54
2022-09-27T04:20:34.405Z,95.54
2022-09-27T04:21:34.432Z,95.43
2022-09-27T04:22:34.404Z,95.43
2022-09-27T04:23:41.099Z,95.43
2022-09-27T04:24:34.429Z,95.23
2022-09-27T04:25:34.438Z,95.34
2022-09-27T04:26:34.356Z,95.34
2022-09-27T04:27:34.354Z,95.43
2022-09-27T04:28:34.385Z,95.43
2022-09-27T04:29:34.338Z,95.54
2022-09-27T04:30:35.668Z,95.58
2022-09-27T04:31:34.341Z,95.58
2022-09-27T04:32:34.299Z,95.58
2022-09-27T04:33:36.309Z,95.48
2022-09-27T04:34:35.622Z,95.38
2022-09-27T04:35:35.434Z,95.28
2022-09-27T04:36:34.258Z,95.23
2022-09-27T04:37:34.229Z,95.23
2022-09-27T04:38:34.248Z,95.14
2022-09-27T04:39:36.246Z,95.23
2022-09-27T04:40:34.309Z,95.23
2022-09-27T04:41:34.254Z,95.38
2022-09-27T04:42:34.237Z,95.48
2022-09-27T04:43:35.012Z,95.38
2022-09-27T04:44:34.231Z,95.34
2022-09-27T04:45:35.303Z,95.48
2022-09-27T04:46:34.271Z,95.18
2022-09-27T04:47:34.634Z,95.14
2022-09-27T04:48:34.678Z,95.23
2022-09-27T04:49:34.140Z,95.23
2022-09-27T04:50:36.560Z,95.38
2022-09-27T04:51:34.893Z,95.38
2022-09-27T04:52:34.069Z,95.48
2022-09-27T04:53:34.082Z,95.48
2022-09-27T04:54:35.973Z,95.48
2022-09-27T04:55:34.078Z,95.38
2022-09-27T04:56:34.024Z,95.28
2022-09-27T04:57:34.695Z,95.38
2022-09-27T04:58:33.988Z,95.38
2022-09-27T04:59:33.969Z,95.38
2022-09-27T05:00:34.065Z,95.38
2022-09-27T05:01:34.068Z,95.28
2022-09-27T05:02:34.958Z,95.28
2022-09-27T05:03:34.192Z,95.38
2022-09-27T05:04:33.948Z,95.38
2022-09-27T05:05:33.917Z,95.38
2022-09-27T05:06:34.692Z,95.38
2022-09-27T05:07:34.927Z,95.48
2022-09-27T05:15:35.786Z,95.48
2022-09-27T05:16:35.906Z,95.48
2022-09-27T05:17:35.901Z,95.58
2022-09-27T05:18:35.929Z,95.48
2022-09-27T05:19:35.842Z,95.28
2022-09-27T05:20:38.360Z,95.28
2022-09-27T05:21:36.410Z,95.28
2022-09-27T05:22:36.596Z,95.28
2022-09-27T05:23:35.829Z,95.28
2022-09-27T05:24:36.923Z,95.28
2022-09-27T05:25:36.575Z,95.18
2022-09-27T05:26:35.794Z,95.18
2022-09-27T05:27:37.661Z,95.28
2022-09-27T05:28:35.739Z,95.28
2022-09-27T05:29:36.577Z,95.28
2022-09-27T05:30:36.514Z,95.28
2022-09-27T05:31:36.594Z,95.28
2022-09-27T05:32:36.749Z,95.28
2022-09-27T05:33:35.689Z,95.28
2022-09-27T05:34:35.629Z,95.18
2022-09-27T05:35:35.680Z,95.07
2022-09-27T05:36:35.682Z,95.07
2022-09-27T05:37:36.572Z,95.07
2022-09-27T05:38:35.633Z,95.18
2022-09-27T05:39:35.615Z,95.18
2022-09-27T05:40:42.817Z,94.98
2022-09-27T05:41:35.709Z,94.98
2022-09-27T05:42:35.620Z,94.98
2022-09-27T05:43:35.622Z,94.98
2022-09-27T05:44:35.563Z,94.98
2022-09-27T05:45:35.540Z,94.98
2022-09-27T05:46:35.548Z,94.98
2022-09-27T05:47:35.507Z,95.07
2022-09-27T05:48:35.541Z,94.93
2022-09-27T05:49:35.518Z,94.93
2022-09-27T05:50:35.507Z,95.03
2022-09-27T05:51:35.678Z,94.93
2022-09-27T05:52:35.543Z,94.83
2022-09-27T05:53:35.517Z,94.63
2022-09-27T05:54:35.430Z,94.78
2022-09-27T05:55:35.447Z,94.87
2022-09-27T05:56:36.427Z,94.93
2022-09-27T05:57:35.433Z,94.93
2022-09-27T05:58:35.398Z,94.93
2022-09-27T05:59:35.400Z,95.07
2022-09-27T06:00:35.393Z,95.03
2022-09-27T06:01:35.427Z,95.03
2022-09-27T06:02:36.132Z,95.07
2022-09-27T06:03:35.336Z,95.18
2022-09-27T06:04:35.372Z,95.07
2022-09-27T06:05:35.353Z,95.07
2022-09-27T06:06:36.523Z,95.07
2022-09-27T06:07:35.289Z,95.07
2022-09-27T06:08:36.089Z,95.07
2022-09-27T06:09:35.297Z,95.28
2022-09-27T06:10:35.943Z,95.48
2022-09-27T06:11:35.283Z,95.58
2022-09-27T06:12:35.242Z,95.58
2022-09-27T06:13:35.998Z,95.68
2022-09-27T06:14:36.897Z,95.68
2022-09-27T06:15:35.200Z,95.68
2022-09-27T06:16:35.244Z,95.58
2022-09-27T06:17:35.208Z,95.48
2022-09-27T06:18:35.212Z,95.58
2022-09-27T06:19:35.228Z,95.58
2022-09-27T06:20:35.188Z,95.68
2022-09-27T06:21:35.896Z,95.68
2022-09-27T06:22:35.153Z,95.68
2022-09-27T06:54:49.319Z,95.78
2022-09-27T06:55:50.700Z,95.78
2022-09-27T06:56:50.046Z,95.78
2022-09-27T06:57:50.526Z,96.19
2022-09-27T06:58:50.521Z,96.49
2022-09-27T06:59:50.013Z,96.49
2022-09-27T07:00:49.992Z,96.89
2022-09-27T07:01:50.946Z,96.89
2022-09-27T07:02:55.266Z,96.89
2022-09-27T07:03:49.947Z,97.00
2022-09-27T07:04:49.921Z,97.10
2022-09-27T07:05:49.893Z,97.20
2022-09-27T07:06:50.605Z,97.30
2022-09-27T07:07:50.035Z,97.40
2022-09-27T07:08:50.784Z,97.50
2022-09-27T07:09:49.884Z,97.71
2022-09-27T07:10:49.855Z,97.80
2022-09-27T07:11:49.888Z,98.05
2022-09-27T07:12:49.829Z,98.16
2022-09-27T07:13:50.825Z,98.25
2022-09-27T07:14:49.805Z,98.25
2022-09-27T07:15:49.804Z,98.25
2022-09-27T07:16:49.834Z,98.36
2022-09-27T07:17:49.815Z,98.46
2022-09-27T07:18:50.839Z,98.56
2022-09-27T07:19:49.760Z,98.56
2022-09-27T07:20:56.793Z,98.56
2022-09-27T07:21:49.679Z,98.66
2022-09-27T07:22:49.750Z,98.76
2022-09-27T07:23:49.701Z,98.76
2022-09-27T07:24:49.666Z,98.86
2022-09-27T07:25:49.712Z,98.86
2022-09-27T07:26:49.682Z,98.96
2022-09-27T07:27:49.691Z,98.96
2022-09-27T07:28:49.684Z,98.86
2022-09-27T07:29:49.643Z,98.76
2022-09-27T07:30:49.782Z,98.86
2022-09-27T07:31:51.405Z,98.76
2022-09-27T07:32:50.776Z,98.66
2022-09-27T07:33:49.626Z,98.66
2022-09-27T07:34:49.572Z,98.56
2022-09-27T07:35:50.337Z,98.76
2022-09-27T07:36:50.259Z,98.66
2022-09-27T07:37:50.708Z,98.66
2022-09-27T07:38:49.533Z,98.76
2022-09-27T07:39:49.514Z,98.86
2022-09-27T07:40:49.647Z,98.96
2022-09-27T07:41:49.517Z,99.07
2022-09-27T07:42:51.008Z,99.16
2022-09-27T07:43:49.509Z,99.27
2022-09-27T07:44:50.169Z,99.37
2022-09-27T07:45:49.564Z,99.37
2022-09-27T07:46:50.208Z,99.37
2022-09-27T07:47:51.185Z,99.37
2022-09-27T07:48:49.428Z,99.47
2022-09-27T07:49:51.564Z,99.37
2022-09-27T07:50:50.830Z,99.32
2022-09-27T07:51:49.431Z,99.52
2022-09-27T07:52:49.413Z,99.72
2022-09-27T07:53:49.384Z,99.82
2022-09-27T07:54:49.311Z,99.92
2022-09-27T07:55:49.322Z,99.99
2022-09-27T07:56:49.349Z,99.92
2022-09-27T07:57:49.356Z,99.99
2022-09-27T07:58:50.323Z,99.98
2022-09-27T07:59:49.551Z,99.98
2022-09-27T08:00:49.333Z,99.98
2022-09-27T08:01:49.286Z,99.87
2022-09-27T08:02:50.879Z,99.77
2022-09-27T08:03:50.138Z,99.67
2022-09-27T08:04:49.226Z,99.57
2022-09-27T08:05:49.257Z,99.37
2022-09-27T08:06:50.395Z,99.27
2022-09-27T08:07:49.244Z,99.16
2022-09-27T08:08:49.249Z,99.07
2022-09-27T08:09:49.196Z,98.96
2022-09-27T08:10:49.169Z,98.86
2022-09-27T09:45:50.899Z,98.82
2022-09-27T09:46:51.552Z,98.92
2022-09-27T09:47:51.533Z,98.82
2022-09-27T09:48:56.694Z,98.82
2022-09-27T09:49:51.533Z,98.71
2022-09-27T09:50:53.356Z,98.57
2022-09-27T09:51:51.512Z,98.67
2022-09-27T09:52:51.494Z,98.57
2022-09-27T09:53:51.465Z,98.36
2022-09-27T09:54:51.423Z,97.96
2022-09-27T09:55:51.408Z,97.80
2022-09-27T09:56:52.142Z,98.11
2022-09-27T09:57:51.413Z,98.41
2022-09-27T09:58:51.376Z,98.61
2022-09-27T09:59:51.394Z,98.71
2022-09-27T10:00:51.424Z,98.57
2022-09-27T10:01:52.134Z,98.36
2022-09-27T10:02:51.370Z,97.66
2022-09-27T10:03:52.309Z,97.71
2022-09-27T10:04:53.055Z,97.66
2022-09-27T10:05:52.498Z,97.56
2022-09-27T10:08:37.035Z,97.36
2022-09-27T10:09:39.003Z,96.85
2022-09-27T10:10:38.045Z,96.50
2022-09-27T10:11:38.005Z,96.34
2022-09-27T10:12:38.016Z,96.20
2022-09-27T10:13:38.056Z,96.00
2022-09-27T10:14:37.947Z,96.00
2022-09-27T10:15:37.941Z,95.95
2022-09-27T10:16:38.827Z,95.85
2022-09-27T10:17:38.710Z,95.65
2022-09-27T10:18:37.916Z,94.90
2022-09-27T10:19:39.499Z,94.49
2022-09-27T10:20:37.935Z,94.29
2022-09-27T10:21:37.903Z,94.19
2022-09-27T10:22:40.697Z,94.19
2022-09-27T10:23:39.261Z,93.99
2022-09-27T10:26:14.693Z,93.89
2022-09-27T10:27:14.077Z,93.69
2022-09-27T10:28:14.067Z,93.59
2022-09-27T10:33:27.111Z,93.79
2022-09-27T10:34:09.497Z,93.79
2022-09-27T10:35:09.521Z,93.34
2022-09-27T10:36:10.360Z,92.83
2022-09-27T10:37:10.282Z,92.83
2022-09-27T10:38:11.445Z,92.63
2022-09-27T10:39:09.415Z,92.54
2022-09-27T11:34:24.190Z,89.95
2022-09-27T11:35:24.791Z,89.95
2022-09-27T11:36:24.106Z,89.95
2022-09-27T11:37:23.811Z,89.84
2022-09-27T11:57:00.140Z,85.84
2022-09-27T11:57:26.020Z,85.64
2022-09-27T11:58:27.706Z,85.53
2022-09-27T11:59:26.635Z,85.84
2022-09-27T12:00:26.750Z,85.60
2022-09-27T12:11:26.211Z,85.30
2022-09-27T12:12:24.453Z,84.89
2022-09-27T12:15:08.115Z,84.95
2022-09-27T12:15:46.194Z,84.65
2022-09-27T12:32:03.725Z,81.11
2022-09-27T12:33:02.320Z,80.21
2022-09-27T12:34:01.457Z,79.80
2022-09-27T12:35:03.391Z,79.50
2022-09-27T12:36:01.443Z,79.60
2022-09-27T12:37:01.440Z,79.80
2022-09-27T12:38:01.710Z,79.50
2022-09-27T12:39:01.427Z,79.10
2022-09-27T12:40:03.856Z,79.41
2022-09-27T12:41:01.427Z,79.50
2022-09-27T12:44:49.030Z,78.43
2022-09-27T12:45:46.522Z,78.33
2022-09-27T12:46:47.304Z,77.79
2022-09-27T12:47:46.586Z,77.19
2022-09-27T12:48:46.501Z,77.06
2022-09-27T12:49:46.519Z,76.56
2022-09-27T12:50:47.265Z,76.22
2022-09-27T12:51:47.897Z,76.32
2022-09-27T12:52:47.980Z,75.62
2022-09-27T12:53:46.448Z,75.82
2022-09-27T12:54:46.412Z,75.22
2022-09-27T12:55:46.416Z,75.32
2022-09-27T12:56:46.441Z,76.02
2022-09-27T12:57:46.406Z,75.89
2022-09-27T12:58:46.380Z,75.48
2022-09-27T12:59:46.633Z,75.68
2022-09-27T13:00:47.110Z,75.38
2022-09-27T13:01:46.614Z,75.78
2022-09-27T13:03:11.074Z,76.22
2022-09-27T13:03:47.120Z,77.36
2022-09-27T13:04:46.338Z,76.86
2022-09-27T13:08:36.774Z,75.18
2022-09-27T13:09:35.943Z,74.75
2022-09-27T13:10:36.606Z,74.35
2022-09-27T13:16:47.758Z,71.55
2022-09-27T13:17:48.035Z,71.19
2022-09-27T13:18:47.990Z,71.69
2022-09-27T13:19:48.015Z,70.99
2022-09-27T13:20:48.012Z,71.89
2022-09-27T13:21:47.989Z,71.98
2022-09-27T13:22:47.986Z,72.02
2022-09-27T13:23:47.940Z,72.85
2022-09-27T13:26:21.558Z,72.81
2022-09-27T13:27:22.644Z,73.22
2022-09-27T13:28:24.582Z,73.02
2022-09-27T13:29:22.550Z,72.98
2022-09-27T13:30:24.567Z,72.58
2022-09-27T13:31:25.950Z,72.15
2022-09-27T13:32:23.136Z,73.05
2022-09-27T13:33:23.685Z,73.61
2022-09-27T13:34:25.713Z,70.72
2022-09-27T13:35:27.092Z,70.32
2022-09-27T13:36:22.463Z,70.42
2022-09-27T13:37:22.554Z,72.41
2022-09-27T13:38:25.884Z,71.02
2022-09-27T13:39:21.435Z,71.78
2022-09-27T13:40:22.490Z,71.48
2022-09-27T13:41:24.163Z,70.89
2022-09-27T13:42:22.531Z,69.96
2022-09-27T13:43:23.594Z,70.59
2022-09-27T13:44:22.378Z,71.39
2022-09-27T13:45:22.343Z,70.09
2022-09-27T13:46:22.429Z,68.70
2022-09-27T13:47:22.332Z,69.43
2022-09-27T13:48:22.324Z,69.59
2022-09-27T13:49:23.503Z,69.69
2022-09-27T13:50:23.138Z,70.32
2022-09-27T13:51:22.310Z,70.22
2022-09-27T13:52:22.252Z,70.03
2022-09-27T13:53:22.286Z,69.73
2022-09-27T13:57:09.685Z,68.70
2022-09-27T13:58:11.460Z,68.79
2022-09-27T13:59:10.639Z,68.70
2022-09-27T14:00:10.690Z,69.39
2022-09-27T14:01:11.572Z,69.39
2022-09-27T14:02:11.233Z,69.59
2022-09-27T14:12:52.347Z,68.37
2022-09-27T14:18:24.169Z,69.46
2022-09-27T14:19:25.083Z,69.36
2022-09-27T14:25:41.310Z,69.16
2022-09-27T14:26:44.547Z,69.16
2022-09-27T14:28:17.022Z,68.83
2022-09-27T14:28:42.300Z,69.36
2022-09-27T14:37:25.479Z,68.73
2022-09-27T14:38:39.254Z,68.20
2022-09-27T14:39:23.994Z,67.57
2022-09-27T15:45:10.809Z,69.16
2022-09-27T15:46:11.494Z,68.76
2022-09-27T15:47:11.473Z,68.86
2022-09-27T15:48:11.463Z,69.06
2022-09-27T15:49:11.506Z,68.86
2022-09-27T15:50:11.507Z,69.49
2022-09-27T15:51:11.390Z,69.79
2022-09-27T15:52:11.405Z,69.59
2022-09-27T15:53:11.502Z,69.69
2022-09-27T15:54:11.422Z,69.69
2022-09-27T15:55:11.385Z,69.36
2022-09-27T15:56:11.447Z,69.16
2022-09-27T15:57:11.326Z,69.26
2022-09-27T15:58:11.319Z,69.26
2022-09-27T15:59:12.257Z,69.26
2022-09-27T16:00:11.411Z,69.16
2022-09-27T16:01:11.370Z,69.06
2022-09-27T16:02:11.420Z,68.86
2022-09-27T16:03:11.345Z,69.26
2022-09-27T16:04:11.282Z,69.66
2022-09-27T16:05:11.310Z,69.56
2022-09-27T16:06:11.271Z,69.66
2022-09-27T16:07:11.292Z,69.66
2022-09-27T16:08:11.303Z,69.36
2022-09-27T16:09:11.311Z,69.76
2022-09-27T16:10:12.317Z,69.56
2022-09-27T16:11:11.316Z,69.96
2022-09-27T16:12:11.223Z,69.76
2022-09-27T16:13:11.260Z,69.66
2022-09-27T16:14:13.231Z,69.66
2022-09-27T16:15:12.973Z,69.85
2022-09-27T16:16:11.212Z,69.66
2022-09-27T16:19:00.317Z,69.69
2022-09-27T16:19:49.555Z,70.29
2022-09-27T16:20:49.526Z,70.82
2022-09-27T16:21:49.496Z,71.22
2022-09-27T16:22:49.508Z,71.75
2022-09-27T16:23:49.476Z,71.84
2022-09-27T16:24:49.438Z,71.84
2022-09-27T16:25:49.425Z,71.72
2022-09-27T16:26:49.425Z,71.22
2022-09-27T16:27:50.590Z,70.89
2022-09-27T16:28:50.081Z,70.78
2022-09-27T16:29:49.426Z,70.68
2022-09-27T16:30:50.255Z,71.01
2022-09-27T16:31:49.408Z,71.01
2022-09-27T16:32:49.384Z,71.42
2022-09-27T16:35:17.156Z,71.72
2022-09-27T16:36:16.704Z,72.05
2022-09-27T16:37:16.752Z,71.95
2022-09-27T16:38:16.716Z,72.05
2022-09-27T16:39:16.816Z,72.21
2022-09-27T16:40:16.724Z,71.81
2022-09-27T16:41:16.667Z,71.91
2022-09-27T16:42:16.664Z,71.68
2022-09-27T16:43:16.996Z,71.18
2022-09-27T16:44:18.288Z,70.59
2022-09-27T16:45:19.226Z,70.55
2022-09-27T16:46:16.665Z,70.06
2022-09-27T16:47:16.608Z,70.45
2022-09-27T16:48:16.818Z,70.15
2022-09-27T16:49:16.588Z,70.36
2022-09-27T16:50:16.576Z,70.15
2022-09-27T16:51:20.558Z,70.25
2022-09-27T16:52:16.607Z,70.25
2022-09-27T16:53:16.521Z,69.96
2022-09-27T16:54:16.627Z,70.55
2022-09-27T16:55:16.541Z,70.68
2022-09-27T16:56:16.522Z,70.78
2022-09-27T16:57:16.486Z,70.89
2022-09-27T16:58:16.964Z,70.98
2022-09-27T16:59:16.461Z,70.98
2022-09-27T17:00:16.465Z,71.08
2022-09-27T17:01:16.509Z,70.98
2022-09-27T17:02:16.545Z,72.21
2022-09-27T17:03:16.411Z,73.50
2022-09-27T17:04:16.449Z,73.74
2022-09-27T17:05:16.396Z,75.23
2022-09-27T17:06:16.440Z,76.06
2022-09-27T17:07:16.379Z,76.17
2022-09-27T17:08:18.256Z,76.50
2022-09-27T17:09:16.989Z,76.90
2022-09-27T17:10:16.382Z,77.43
2022-09-27T17:11:16.366Z,77.73
2022-09-27T17:12:16.378Z,77.83
2022-09-27T17:13:16.306Z,78.27
2022-09-27T17:14:16.459Z,78.37
2022-09-27T17:15:17.024Z,78.77
2022-09-27T17:16:16.374Z,78.86
2022-09-27T17:17:16.278Z,78.47
2022-09-27T17:18:16.269Z,78.77
2022-09-27T17:19:17.179Z,78.37
2022-09-27T17:20:16.183Z,78.41
2022-09-27T17:21:16.201Z,79.30
2022-09-27T17:22:17.020Z,79.50
2022-09-27T17:23:17.345Z,79.40
2022-09-27T17:24:16.342Z,79.40
2022-09-27T17:25:16.197Z,79.50
2022-09-27T17:26:16.146Z,79.20
2022-09-27T17:27:16.147Z,79.40
2022-09-27T17:28:16.127Z,79.30
2022-09-27T17:29:16.097Z,79.20
2022-09-27T17:30:17.240Z,79.64
2022-09-27T17:31:40.229Z,80.04
2022-09-27T17:32:16.997Z,80.24
2022-09-27T17:33:16.092Z,80.14
2022-09-27T17:43:02.215Z,80.35
2022-09-27T17:44:03.187Z,80.76
2022-09-27T17:45:26.608Z,80.85
2022-09-27T17:46:02.750Z,80.45
2022-09-27T17:47:02.663Z,80.35
2022-09-27T17:48:03.318Z,80.39
2022-09-27T17:49:02.611Z,80.89
2022-09-27T17:55:18.277Z,84.69
2022-09-27T17:56:19.000Z,84.73
2022-09-27T17:57:18.994Z,85.83
2022-09-27T17:58:19.005Z,87.13
2022-09-27T17:59:40.957Z,87.68
2022-09-27T18:00:19.010Z,88.28
2022-09-27T18:01:19.064Z,88.52
2022-09-27T18:02:47.902Z,89.76
2022-09-27T18:03:22.739Z,90.06
2022-09-27T18:04:22.221Z,90.61
2022-09-27T18:05:56.309Z,90.81
2022-09-27T18:06:18.943Z,90.81
2022-09-27T18:07:18.870Z,90.81
2022-09-27T18:08:19.160Z,90.81
2022-09-27T18:09:18.884Z,90.91
2022-09-27T18:10:18.827Z,92.21
2022-09-27T18:11:53.359Z,91.81
2022-09-27T18:12:18.856Z,91.51
2022-09-27T18:13:18.867Z,91.15
2022-09-27T18:14:41.084Z,91.65
2022-09-27T18:15:19.566Z,91.85
2022-09-27T18:16:18.813Z,92.55
2022-09-27T18:17:18.813Z,93.55
2022-09-27T18:18:19.334Z,91.80
2022-09-27T18:19:18.747Z,91.74
2022-09-27T18:20:18.746Z,91.84
2022-09-27T18:21:18.695Z,91.88
2022-09-27T18:29:47.838Z,92.99
2022-09-27T18:30:44.478Z,93.29
2022-09-27T18:31:48.224Z,93.09
2022-09-27T18:32:43.277Z,92.79
2022-09-27T18:33:44.253Z,92.18
2022-09-27T18:34:43.281Z,91.28
2022-09-27T18:35:43.282Z,90.17
2022-09-27T18:36:43.287Z,88.61
2022-09-27T18:37:47.628Z,86.70
2022-09-27T18:38:43.221Z,87.30
2022-09-27T18:39:46.251Z,87.87
2022-09-27T18:40:56.045Z,87.51
2022-09-27T18:41:43.314Z,87.81
2022-09-27T20:05:46.692Z,97.98
2022-09-27T20:06:38.577Z,98.18
2022-09-27T20:07:38.580Z,98.58
2022-09-27T23:07:10.071Z,99.99
